sensor_id;sensor_type;location;lat;lon;timestamp;temperature;humidity
30385;DHT22;17181;51.002;4.096;2024-03-02T07:24:54;6.70;99.90
30385;DHT22;17181;51.002;4.096;2024-03-02T08:17:01;7.70;99.90
30385;DHT22;17181;51.002;4.096;2024-03-02T08:19:27;7.80;99.90
30385;DHT22;17181;51.002;4.096;2024-03-02T08:21:56;7.80;99.90
30385;DHT22;17181;51.002;4.096;2024-03-02T08:24:25;7.90;99.90
30385;DHT22;17181;51.002;4.096;2024-03-02T08:26:52;7.90;99.90
30385;DHT22;17181;51.002;4.096;2024-03-02T08:32:11;8.10;99.90
30385;DHT22;17181;51.002;4.096;2024-03-02T08:34:43;8.10;99.90
30385;DHT22;17181;51.002;4.096;2024-03-02T08:37:20;8.20;99.90
30385;DHT22;17181;51.002;4.096;2024-03-02T08:39:50;8.20;99.90
30385;DHT22;17181;51.002;4.096;2024-03-02T08:42:18;8.30;99.90
30385;DHT22;17181;51.002;4.096;2024-03-02T08:45:02;8.30;99.90
30385;DHT22;17181;51.002;4.096;2024-03-02T08:56:07;8.60;99.90
30385;DHT22;17181;51.002;4.096;2024-03-02T08:58:40;8.60;99.90
30385;DHT22;17181;51.002;4.096;2024-03-02T09:01:06;8.70;99.90
30385;DHT22;17181;51.002;4.096;2024-03-02T09:03:34;8.80;99.90
30385;DHT22;17181;51.002;4.096;2024-03-02T09:06:01;8.80;99.90
30385;DHT22;17181;51.002;4.096;2024-03-02T09:08:27;8.90;99.90
30385;DHT22;17181;51.002;4.096;2024-03-02T09:10:54;9.00;99.90
30385;DHT22;17181;51.002;4.096;2024-03-02T09:13:20;9.00;99.90
30385;DHT22;17181;51.002;4.096;2024-03-02T09:15:48;9.10;99.90
30385;DHT22;17181;51.002;4.096;2024-03-02T09:18:14;9.10;99.90
30385;DHT22;17181;51.002;4.096;2024-03-02T09:20:41;9.10;99.90
30385;DHT22;17181;51.002;4.096;2024-03-02T09:23:07;9.10;99.90
30385;DHT22;17181;51.002;4.096;2024-03-02T09:25:33;9.30;99.90
30385;DHT22;17181;51.002;4.096;2024-03-02T09:28:00;9.40;99.90
30385;DHT22;17181;51.002;4.096;2024-03-02T09:30:26;9.50;99.90
30385;DHT22;17181;51.002;4.096;2024-03-02T09:32:55;9.60;99.90
30385;DHT22;17181;51.002;4.096;2024-03-02T09:35:22;9.70;99.90
30385;DHT22;17181;51.002;4.096;2024-03-02T09:37:51;9.70;99.90
30385;DHT22;17181;51.002;4.096;2024-03-02T09:40:20;9.70;99.90
30385;DHT22;17181;51.002;4.096;2024-03-02T09:42:52;9.80;99.90
30385;DHT22;17181;51.002;4.096;2024-03-02T09:45:25;9.90;99.90
30385;DHT22;17181;51.002;4.096;2024-03-02T09:47:52;10.00;99.90
30385;DHT22;17181;51.002;4.096;2024-03-02T09:50:18;9.90;99.90
30385;DHT22;17181;51.002;4.096;2024-03-02T09:52:48;10.10;99.90
30385;DHT22;17181;51.002;4.096;2024-03-02T09:55:16;10.10;99.90
30385;DHT22;17181;51.002;4.096;2024-03-02T09:57:43;10.20;99.90
30385;DHT22;17181;51.002;4.096;2024-03-02T10:00:11;10.30;99.90
30385;DHT22;17181;51.002;4.096;2024-03-02T10:02:43;10.40;99.90
30385;DHT22;17181;51.002;4.096;2024-03-02T10:05:10;10.40;99.90
30385;DHT22;17181;51.002;4.096;2024-03-02T10:07:37;10.60;99.90
30385;DHT22;17181;51.002;4.096;2024-03-02T10:10:16;10.70;99.90
30385;DHT22;17181;51.002;4.096;2024-03-02T10:12:42;10.80;99.90
30385;DHT22;17181;51.002;4.096;2024-03-02T10:15:11;10.90;99.90
30385;DHT22;17181;51.002;4.096;2024-03-02T10:17:40;10.90;99.90
30385;DHT22;17181;51.002;4.096;2024-03-02T10:20:23;11.00;99.90
30385;DHT22;17181;51.002;4.096;2024-03-02T10:22:50;11.10;99.90
30385;DHT22;17181;51.002;4.096;2024-03-02T10:25:32;11.30;99.90
30385;DHT22;17181;51.002;4.096;2024-03-02T10:27:59;11.40;99.90
30385;DHT22;17181;51.002;4.096;2024-03-02T10:30:28;11.50;99.90
30385;DHT22;17181;51.002;4.096;2024-03-02T10:32:55;11.60;99.90
30385;DHT22;17181;51.002;4.096;2024-03-02T10:35:22;11.60;99.90
30385;DHT22;17181;51.002;4.096;2024-03-02T10:37:54;11.70;99.90
30385;DHT22;17181;51.002;4.096;2024-03-02T10:40:23;11.80;99.90
30385;DHT22;17181;51.002;4.096;2024-03-02T10:42:53;11.90;99.90
30385;DHT22;17181;51.002;4.096;2024-03-02T10:45:20;11.90;99.90
30385;DHT22;17181;51.002;4.096;2024-03-02T10:47:50;12.00;99.90
30385;DHT22;17181;51.002;4.096;2024-03-02T10:50:17;12.10;99.90
30385;DHT22;17181;51.002;4.096;2024-03-02T10:52:43;12.10;99.90
30385;DHT22;17181;51.002;4.096;2024-03-02T10:55:10;12.20;99.90
30385;DHT22;17181;51.002;4.096;2024-03-02T10:57:56;12.20;99.90
30385;DHT22;17181;51.002;4.096;2024-03-02T11:00:33;12.30;99.90
30385;DHT22;17181;51.002;4.096;2024-03-02T11:03:06;12.30;99.90
30385;DHT22;17181;51.002;4.096;2024-03-02T11:05:36;12.40;99.90
30385;DHT22;17181;51.002;4.096;2024-03-02T11:08:06;12.40;99.90
30385;DHT22;17181;51.002;4.096;2024-03-02T11:10:53;12.50;99.90
30385;DHT22;17181;51.002;4.096;2024-03-02T11:13:32;12.60;99.90
30385;DHT22;17181;51.002;4.096;2024-03-02T11:16:05;12.60;99.90
30385;DHT22;17181;51.002;4.096;2024-03-02T11:18:32;12.70;99.90
30385;DHT22;17181;51.002;4.096;2024-03-02T11:20:59;12.70;99.90
30385;DHT22;17181;51.002;4.096;2024-03-02T11:23:35;12.80;99.90
30385;DHT22;17181;51.002;4.096;2024-03-02T11:26:17;12.80;99.90
30385;DHT22;17181;51.002;4.096;2024-03-02T11:28:44;12.90;99.90
30385;DHT22;17181;51.002;4.096;2024-03-02T11:31:10;12.90;99.90
30385;DHT22;17181;51.002;4.096;2024-03-02T11:33:37;13.00;99.90
30385;DHT22;17181;51.002;4.096;2024-03-02T11:36:03;13.00;99.90
30385;DHT22;17181;51.002;4.096;2024-03-02T11:38:31;13.10;99.90
30385;DHT22;17181;51.002;4.096;2024-03-02T11:41:02;13.10;99.90
30385;DHT22;17181;51.002;4.096;2024-03-02T11:43:29;13.10;99.90
30385;DHT22;17181;51.002;4.096;2024-03-02T11:45:59;13.10;99.90
30385;DHT22;17181;51.002;4.096;2024-03-02T11:48:26;13.10;99.90
30385;DHT22;17181;51.002;4.096;2024-03-02T11:50:53;13.10;99.90
30385;DHT22;17181;51.002;4.096;2024-03-02T11:53:20;13.10;99.90
30385;DHT22;17181;51.002;4.096;2024-03-02T11:55:46;13.10;99.90
30385;DHT22;17181;51.002;4.096;2024-03-02T11:58:14;13.10;99.90
30385;DHT22;17181;51.002;4.096;2024-03-02T12:00:40;13.10;99.90
30385;DHT22;17181;51.002;4.096;2024-03-02T12:03:09;13.10;99.90
30385;DHT22;17181;51.002;4.096;2024-03-02T12:05:37;13.00;99.90
30385;DHT22;17181;51.002;4.096;2024-03-02T12:08:07;12.90;99.90
30385;DHT22;17181;51.002;4.096;2024-03-02T12:10:34;12.90;99.90
30385;DHT22;17181;51.002;4.096;2024-03-02T12:13:05;12.80;99.90
30385;DHT22;17181;51.002;4.096;2024-03-02T12:15:37;12.80;99.90
30385;DHT22;17181;51.002;4.096;2024-03-02T12:18:04;12.80;99.90
30385;DHT22;17181;51.002;4.096;2024-03-02T12:20:32;12.80;99.90
30385;DHT22;17181;51.002;4.096;2024-03-02T12:23:00;12.90;99.90
30385;DHT22;17181;51.002;4.096;2024-03-02T12:25:27;12.90;99.90
30385;DHT22;17181;51.002;4.096;2024-03-02T12:27:54;12.90;99.90
30385;DHT22;17181;51.002;4.096;2024-03-02T12:30:21;12.80;99.90
30385;DHT22;17181;51.002;4.096;2024-03-02T12:32:47;12.80;99.90
30385;DHT22;17181;51.002;4.096;2024-03-02T12:35:14;12.80;99.90
30385;DHT22;17181;51.002;4.096;2024-03-02T12:37:49;12.80;99.90
30385;DHT22;17181;51.002;4.096;2024-03-02T12:40:18;12.90;99.90
30385;DHT22;17181;51.002;4.096;2024-03-02T12:42:45;13.00;99.90
30385;DHT22;17181;51.002;4.096;2024-03-02T12:45:11;13.20;99.90
30385;DHT22;17181;51.002;4.096;2024-03-02T12:47:40;13.30;99.90
30385;DHT22;17181;51.002;4.096;2024-03-02T12:50:08;13.40;99.90
30385;DHT22;17181;51.002;4.096;2024-03-02T12:52:34;13.50;99.90
30385;DHT22;17181;51.002;4.096;2024-03-02T12:55:01;13.50;99.90
30385;DHT22;17181;51.002;4.096;2024-03-02T12:57:30;13.60;99.90
30385;DHT22;17181;51.002;4.096;2024-03-02T13:02:28;13.60;99.90
30385;DHT22;17181;51.002;4.096;2024-03-02T13:04:55;13.60;99.90
30385;DHT22;17181;51.002;4.096;2024-03-02T13:07:21;13.60;99.90
30385;DHT22;17181;51.002;4.096;2024-03-02T13:09:51;13.60;99.90
30385;DHT22;17181;51.002;4.096;2024-03-02T13:12:19;13.50;99.90
30385;DHT22;17181;51.002;4.096;2024-03-02T13:14:47;13.50;99.90
30385;DHT22;17181;51.002;4.096;2024-03-02T13:17:13;13.40;99.90
30385;DHT22;17181;51.002;4.096;2024-03-02T13:19:56;13.40;99.90
30385;DHT22;17181;51.002;4.096;2024-03-02T13:22:22;13.50;99.90
30385;DHT22;17181;51.002;4.096;2024-03-02T13:24:49;13.50;99.90
30385;DHT22;17181;51.002;4.096;2024-03-02T13:27:15;13.60;99.90
30385;DHT22;17181;51.002;4.096;2024-03-02T13:29:42;13.60;99.90
30385;DHT22;17181;51.002;4.096;2024-03-02T13:32:08;13.60;99.90
30385;DHT22;17181;51.002;4.096;2024-03-02T13:34:35;13.70;99.90
30385;DHT22;17181;51.002;4.096;2024-03-02T13:37:03;13.70;99.90
30385;DHT22;17181;51.002;4.096;2024-03-02T13:39:30;13.70;99.90
30385;DHT22;17181;51.002;4.096;2024-03-02T13:41:58;13.70;99.90
30385;DHT22;17181;51.002;4.096;2024-03-02T13:44:30;13.70;99.90
30385;DHT22;17181;51.002;4.096;2024-03-02T13:46:56;13.60;99.90
30385;DHT22;17181;51.002;4.096;2024-03-02T13:49:23;13.60;99.90
30385;DHT22;17181;51.002;4.096;2024-03-02T13:51:49;13.60;99.90
30385;DHT22;17181;51.002;4.096;2024-03-02T13:54:15;13.60;99.90
30385;DHT22;17181;51.002;4.096;2024-03-02T13:56:41;13.70;99.90
30385;DHT22;17181;51.002;4.096;2024-03-02T13:59:08;13.70;99.90
30385;DHT22;17181;51.002;4.096;2024-03-02T14:01:34;13.80;99.90
30385;DHT22;17181;51.002;4.096;2024-03-02T14:04:00;13.90;99.90
30385;DHT22;17181;51.002;4.096;2024-03-02T14:06:26;14.00;99.90
30385;DHT22;17181;51.002;4.096;2024-03-02T14:08:53;14.00;99.90
30385;DHT22;17181;51.002;4.096;2024-03-02T14:11:19;13.90;99.90
30385;DHT22;17181;51.002;4.096;2024-03-02T14:13:46;13.90;99.90
30385;DHT22;17181;51.002;4.096;2024-03-02T14:16:15;13.80;99.90
30385;DHT22;17181;51.002;4.096;2024-03-02T14:18:41;13.90;99.90
30385;DHT22;17181;51.002;4.096;2024-03-02T14:21:08;13.90;99.90
30385;DHT22;17181;51.002;4.096;2024-03-02T14:23:33;13.90;99.90
30385;DHT22;17181;51.002;4.096;2024-03-02T14:25:59;13.90;99.90
30385;DHT22;17181;51.002;4.096;2024-03-02T14:28:25;13.90;99.90
30385;DHT22;17181;51.002;4.096;2024-03-02T14:30:51;13.90;99.90
30385;DHT22;17181;51.002;4.096;2024-03-02T14:33:17;13.80;99.90
30385;DHT22;17181;51.002;4.096;2024-03-02T14:35:44;13.80;99.90
30385;DHT22;17181;51.002;4.096;2024-03-02T14:38:11;13.90;99.90
30385;DHT22;17181;51.002;4.096;2024-03-02T14:40:37;13.90;99.90
30385;DHT22;17181;51.002;4.096;2024-03-02T14:43:03;13.90;99.90
30385;DHT22;17181;51.002;4.096;2024-03-02T14:45:29;13.90;99.90
30385;DHT22;17181;51.002;4.096;2024-03-02T14:47:55;13.90;99.90
30385;DHT22;17181;51.002;4.096;2024-03-02T14:50:21;13.80;99.90
30385;DHT22;17181;51.002;4.096;2024-03-02T14:52:47;13.80;99.90
30385;DHT22;17181;51.002;4.096;2024-03-02T14:55:13;13.80;99.90
30385;DHT22;17181;51.002;4.096;2024-03-02T14:57:39;13.70;99.90
30385;DHT22;17181;51.002;4.096;2024-03-02T15:00:05;13.70;99.90
30385;DHT22;17181;51.002;4.096;2024-03-02T15:02:34;13.70;99.90
30385;DHT22;17181;51.002;4.096;2024-03-02T15:05:00;13.70;99.90
30385;DHT22;17181;51.002;4.096;2024-03-02T15:07:26;13.70;99.90
30385;DHT22;17181;51.002;4.096;2024-03-02T15:09:52;13.70;99.90
30385;DHT22;17181;51.002;4.096;2024-03-02T15:12:18;13.70;99.90
30385;DHT22;17181;51.002;4.096;2024-03-02T15:14:44;13.70;99.90
30385;DHT22;17181;51.002;4.096;2024-03-02T15:17:15;13.70;99.90
30385;DHT22;17181;51.002;4.096;2024-03-02T15:19:45;13.70;99.90
30385;DHT22;17181;51.002;4.096;2024-03-02T15:22:12;13.60;99.90
30385;DHT22;17181;51.002;4.096;2024-03-02T15:24:38;13.50;99.90
30385;DHT22;17181;51.002;4.096;2024-03-02T15:27:05;13.50;99.90
30385;DHT22;17181;51.002;4.096;2024-03-02T15:29:32;13.50;99.90
30385;DHT22;17181;51.002;4.096;2024-03-02T15:31:58;13.50;99.90
30385;DHT22;17181;51.002;4.096;2024-03-02T15:34:25;13.50;99.90
30385;DHT22;17181;51.002;4.096;2024-03-02T15:36:51;13.50;99.90
30385;DHT22;17181;51.002;4.096;2024-03-02T15:39:17;13.50;99.90
30385;DHT22;17181;51.002;4.096;2024-03-02T15:41:44;13.50;99.90
30385;DHT22;17181;51.002;4.096;2024-03-02T15:44:10;13.50;99.90
30385;DHT22;17181;51.002;4.096;2024-03-02T15:46:37;13.50;99.90
30385;DHT22;17181;51.002;4.096;2024-03-02T15:49:03;13.50;99.90
30385;DHT22;17181;51.002;4.096;2024-03-02T15:51:31;13.50;99.90
30385;DHT22;17181;51.002;4.096;2024-03-02T15:53:59;13.50;99.90
30385;DHT22;17181;51.002;4.096;2024-03-02T15:56:25;13.50;99.90
30385;DHT22;17181;51.002;4.096;2024-03-02T15:58:51;13.50;99.90
30385;DHT22;17181;51.002;4.096;2024-03-02T16:01:16;13.40;99.90
30385;DHT22;17181;51.002;4.096;2024-03-02T16:03:44;13.40;99.90
30385;DHT22;17181;51.002;4.096;2024-03-02T16:06:09;13.40;99.90
30385;DHT22;17181;51.002;4.096;2024-03-02T16:08:35;13.40;99.90
30385;DHT22;17181;51.002;4.096;2024-03-02T16:11:01;13.40;99.90
30385;DHT22;17181;51.002;4.096;2024-03-02T16:13:28;13.40;99.90
30385;DHT22;17181;51.002;4.096;2024-03-02T16:15:54;13.40;99.90
30385;DHT22;17181;51.002;4.096;2024-03-02T16:18:20;13.40;99.90
30385;DHT22;17181;51.002;4.096;2024-03-02T16:20:46;13.30;99.90
30385;DHT22;17181;51.002;4.096;2024-03-02T16:23:12;13.30;99.90
30385;DHT22;17181;51.002;4.096;2024-03-02T16:25:38;13.30;99.90
30385;DHT22;17181;51.002;4.096;2024-03-02T16:28:07;13.30;99.90
30385;DHT22;17181;51.002;4.096;2024-03-02T16:30:34;13.30;99.90
30385;DHT22;17181;51.002;4.096;2024-03-02T16:33:00;13.30;99.90
30385;DHT22;17181;51.002;4.096;2024-03-02T16:35:26;13.30;99.90
30385;DHT22;17181;51.002;4.096;2024-03-02T16:37:52;13.30;99.90
30385;DHT22;17181;51.002;4.096;2024-03-02T16:40:18;13.30;99.90
30385;DHT22;17181;51.002;4.096;2024-03-02T16:42:44;13.30;99.90
30385;DHT22;17181;51.002;4.096;2024-03-02T16:45:10;13.30;99.90
30385;DHT22;17181;51.002;4.096;2024-03-02T16:47:36;13.20;99.90
30385;DHT22;17181;51.002;4.096;2024-03-02T16:50:01;13.20;99.90
30385;DHT22;17181;51.002;4.096;2024-03-02T16:52:29;13.10;99.90
30385;DHT22;17181;51.002;4.096;2024-03-02T16:54:55;13.10;99.90
30385;DHT22;17181;51.002;4.096;2024-03-02T16:57:21;13.10;99.90
30385;DHT22;17181;51.002;4.096;2024-03-02T16:59:47;13.10;99.90
30385;DHT22;17181;51.002;4.096;2024-03-02T17:02:13;13.10;99.90
30385;DHT22;17181;51.002;4.096;2024-03-02T17:04:39;13.00;99.90
30385;DHT22;17181;51.002;4.096;2024-03-02T17:07:06;13.10;99.90
30385;DHT22;17181;51.002;4.096;2024-03-02T17:09:32;13.00;99.90
30385;DHT22;17181;51.002;4.096;2024-03-02T17:11:57;13.00;99.90
30385;DHT22;17181;51.002;4.096;2024-03-02T17:14:24;13.10;99.90
30385;DHT22;17181;51.002;4.096;2024-03-02T17:16:50;13.00;99.90
30385;DHT22;17181;51.002;4.096;2024-03-02T17:19:17;13.00;99.90
30385;DHT22;17181;51.002;4.096;2024-03-02T17:21:43;13.00;99.90
30385;DHT22;17181;51.002;4.096;2024-03-02T17:24:09;13.00;99.90
30385;DHT22;17181;51.002;4.096;2024-03-02T17:26:34;13.00;99.90
30385;DHT22;17181;51.002;4.096;2024-03-02T17:29:00;13.00;99.90
30385;DHT22;17181;51.002;4.096;2024-03-02T17:31:27;13.00;99.90
30385;DHT22;17181;51.002;4.096;2024-03-02T17:33:52;13.00;99.90
30385;DHT22;17181;51.002;4.096;2024-03-02T17:36:18;12.90;99.90
30385;DHT22;17181;51.002;4.096;2024-03-02T17:38:44;12.90;99.90
30385;DHT22;17181;51.002;4.096;2024-03-02T17:41:10;12.90;99.90
30385;DHT22;17181;51.002;4.096;2024-03-02T17:43:39;12.90;99.90
30385;DHT22;17181;51.002;4.096;2024-03-02T17:46:05;12.90;99.90
30385;DHT22;17181;51.002;4.096;2024-03-02T17:48:32;12.90;99.90
30385;DHT22;17181;51.002;4.096;2024-03-02T17:50:58;12.90;99.90
30385;DHT22;17181;51.002;4.096;2024-03-02T17:53:23;12.90;99.90
30385;DHT22;17181;51.002;4.096;2024-03-02T17:55:49;12.80;99.90
30385;DHT22;17181;51.002;4.096;2024-03-02T17:58:15;12.80;99.90
30385;DHT22;17181;51.002;4.096;2024-03-02T18:00:41;12.80;99.90
30385;DHT22;17181;51.002;4.096;2024-03-02T18:03:07;12.80;99.90
30385;DHT22;17181;51.002;4.096;2024-03-02T18:05:33;12.80;99.90
30385;DHT22;17181;51.002;4.096;2024-03-02T18:08:01;12.80;99.90
30385;DHT22;17181;51.002;4.096;2024-03-02T18:10:29;12.90;99.90
30385;DHT22;17181;51.002;4.096;2024-03-02T18:12:55;12.80;99.90
30385;DHT22;17181;51.002;4.096;2024-03-02T18:15:21;12.80;99.90
30385;DHT22;17181;51.002;4.096;2024-03-02T18:17:47;12.80;99.90
30385;DHT22;17181;51.002;4.096;2024-03-02T18:20:13;12.80;99.90
30385;DHT22;17181;51.002;4.096;2024-03-02T18:22:39;12.80;99.90
30385;DHT22;17181;51.002;4.096;2024-03-02T18:25:05;12.80;99.90
30385;DHT22;17181;51.002;4.096;2024-03-02T18:27:32;12.80;99.90
30385;DHT22;17181;51.002;4.096;2024-03-02T18:29:58;12.70;99.90
30385;DHT22;17181;51.002;4.096;2024-03-02T18:32:24;12.70;99.90
30385;DHT22;17181;51.002;4.096;2024-03-02T18:34:50;12.70;99.90
30385;DHT22;17181;51.002;4.096;2024-03-02T18:37:16;12.70;99.90
30385;DHT22;17181;51.002;4.096;2024-03-02T18:39:47;12.70;99.90
30385;DHT22;17181;51.002;4.096;2024-03-02T18:42:14;12.70;99.90
30385;DHT22;17181;51.002;4.096;2024-03-02T18:44:40;12.70;99.90
30385;DHT22;17181;51.002;4.096;2024-03-02T18:47:07;12.70;99.90
30385;DHT22;17181;51.002;4.096;2024-03-02T18:49:33;12.70;99.90
30385;DHT22;17181;51.002;4.096;2024-03-02T18:51:59;12.70;99.90
30385;DHT22;17181;51.002;4.096;2024-03-02T18:54:27;12.70;99.90
30385;DHT22;17181;51.002;4.096;2024-03-02T18:56:53;12.70;99.90
30385;DHT22;17181;51.002;4.096;2024-03-02T18:59:19;12.70;99.90
30385;DHT22;17181;51.002;4.096;2024-03-02T19:01:45;12.70;99.90
30385;DHT22;17181;51.002;4.096;2024-03-02T19:04:11;12.70;99.90
30385;DHT22;17181;51.002;4.096;2024-03-02T19:06:36;12.70;99.90
30385;DHT22;17181;51.002;4.096;2024-03-02T19:09:02;12.70;99.90
30385;DHT22;17181;51.002;4.096;2024-03-02T19:11:28;12.70;99.90
30385;DHT22;17181;51.002;4.096;2024-03-02T19:13:54;12.60;99.90
30385;DHT22;17181;51.002;4.096;2024-03-02T19:16:20;12.60;99.90
30385;DHT22;17181;51.002;4.096;2024-03-02T19:18:47;12.70;99.90
30385;DHT22;17181;51.002;4.096;2024-03-02T19:21:13;12.60;99.90
30385;DHT22;17181;51.002;4.096;2024-03-02T19:23:39;12.60;99.90
30385;DHT22;17181;51.002;4.096;2024-03-02T19:26:04;12.60;99.90
30385;DHT22;17181;51.002;4.096;2024-03-02T19:28:30;12.60;99.90
30385;DHT22;17181;51.002;4.096;2024-03-02T19:30:56;12.60;99.90
30385;DHT22;17181;51.002;4.096;2024-03-02T19:33:22;12.60;99.90
30385;DHT22;17181;51.002;4.096;2024-03-02T19:35:48;12.60;99.90
30385;DHT22;17181;51.002;4.096;2024-03-02T19:38:14;12.60;99.90
30385;DHT22;17181;51.002;4.096;2024-03-02T19:40:40;12.60;99.90
30385;DHT22;17181;51.002;4.096;2024-03-02T19:43:09;12.60;99.90
30385;DHT22;17181;51.002;4.096;2024-03-02T19:45:34;12.60;99.90
30385;DHT22;17181;51.002;4.096;2024-03-02T19:48:00;12.60;99.90
30385;DHT22;17181;51.002;4.096;2024-03-02T19:50:26;12.60;99.90
30385;DHT22;17181;51.002;4.096;2024-03-02T19:52:52;12.60;99.90
30385;DHT22;17181;51.002;4.096;2024-03-02T19:55:18;12.60;99.90
30385;DHT22;17181;51.002;4.096;2024-03-02T19:57:44;12.60;99.90
30385;DHT22;17181;51.002;4.096;2024-03-02T20:00:13;12.60;99.90
30385;DHT22;17181;51.002;4.096;2024-03-02T20:02:39;12.60;99.90
30385;DHT22;17181;51.002;4.096;2024-03-02T20:05:06;12.60;99.90
30385;DHT22;17181;51.002;4.096;2024-03-02T20:07:32;12.70;99.90
30385;DHT22;17181;51.002;4.096;2024-03-02T20:09:58;12.60;99.90
30385;DHT22;17181;51.002;4.096;2024-03-02T20:12:23;12.70;99.90
30385;DHT22;17181;51.002;4.096;2024-03-02T20:14:50;12.70;99.90
30385;DHT22;17181;51.002;4.096;2024-03-02T20:17:15;12.70;99.90
30385;DHT22;17181;51.002;4.096;2024-03-02T20:19:41;12.70;99.90
30385;DHT22;17181;51.002;4.096;2024-03-02T20:22:07;12.70;99.90
30385;DHT22;17181;51.002;4.096;2024-03-02T20:24:33;12.70;99.90
30385;DHT22;17181;51.002;4.096;2024-03-02T20:26:59;12.70;99.90
30385;DHT22;17181;51.002;4.096;2024-03-02T20:29:25;12.70;99.90
30385;DHT22;17181;51.002;4.096;2024-03-02T20:31:51;12.70;99.90
30385;DHT22;17181;51.002;4.096;2024-03-02T20:34:17;12.70;99.90
30385;DHT22;17181;51.002;4.096;2024-03-02T20:36:44;12.70;99.90
30385;DHT22;17181;51.002;4.096;2024-03-02T20:39:10;12.60;99.90
30385;DHT22;17181;51.002;4.096;2024-03-02T20:41:36;12.60;99.90
30385;DHT22;17181;51.002;4.096;2024-03-02T20:44:02;12.60;99.90
30385;DHT22;17181;51.002;4.096;2024-03-02T20:46:31;12.60;99.90
30385;DHT22;17181;51.002;4.096;2024-03-02T20:48:57;12.60;99.90
30385;DHT22;17181;51.002;4.096;2024-03-02T20:51:23;12.60;99.90
30385;DHT22;17181;51.002;4.096;2024-03-02T20:53:55;12.50;99.90
30385;DHT22;17181;51.002;4.096;2024-03-02T20:56:21;12.50;99.90
30385;DHT22;17181;51.002;4.096;2024-03-02T20:58:47;12.50;99.90
30385;DHT22;17181;51.002;4.096;2024-03-02T21:01:13;12.60;99.90
30385;DHT22;17181;51.002;4.096;2024-03-02T21:03:39;12.60;99.90
30385;DHT22;17181;51.002;4.096;2024-03-02T21:06:06;12.60;99.90
30385;DHT22;17181;51.002;4.096;2024-03-02T21:08:32;12.60;99.90
30385;DHT22;17181;51.002;4.096;2024-03-02T21:10:57;12.60;99.90
30385;DHT22;17181;51.002;4.096;2024-03-02T21:13:23;12.60;99.90
30385;DHT22;17181;51.002;4.096;2024-03-02T21:15:49;12.60;99.90
30385;DHT22;17181;51.002;4.096;2024-03-02T21:18:15;12.60;99.90
30385;DHT22;17181;51.002;4.096;2024-03-02T21:20:41;12.60;99.90
30385;DHT22;17181;51.002;4.096;2024-03-02T21:23:07;12.70;99.90
30385;DHT22;17181;51.002;4.096;2024-03-02T21:25:36;12.60;99.90
30385;DHT22;17181;51.002;4.096;2024-03-02T21:28:02;12.60;99.90
30385;DHT22;17181;51.002;4.096;2024-03-02T21:30:29;12.50;99.90
30385;DHT22;17181;51.002;4.096;2024-03-02T21:32:56;12.50;99.90
30385;DHT22;17181;51.002;4.096;2024-03-02T21:35:22;12.50;99.90
30385;DHT22;17181;51.002;4.096;2024-03-02T21:37:48;12.50;99.90
30385;DHT22;17181;51.002;4.096;2024-03-02T21:40:14;12.40;99.90
30385;DHT22;17181;51.002;4.096;2024-03-02T21:42:42;12.40;99.90
30385;DHT22;17181;51.002;4.096;2024-03-02T21:45:08;12.40;99.90
30385;DHT22;17181;51.002;4.096;2024-03-02T21:47:33;12.40;99.90
30385;DHT22;17181;51.002;4.096;2024-03-02T21:49:59;12.40;99.90
30385;DHT22;17181;51.002;4.096;2024-03-02T21:52:25;12.40;99.90
30385;DHT22;17181;51.002;4.096;2024-03-02T21:54:51;12.30;99.90
30385;DHT22;17181;51.002;4.096;2024-03-02T21:57:17;12.40;99.90
30385;DHT22;17181;51.002;4.096;2024-03-02T21:59:46;12.40;99.90
30385;DHT22;17181;51.002;4.096;2024-03-02T22:02:11;12.40;99.90
30385;DHT22;17181;51.002;4.096;2024-03-02T22:04:37;12.40;99.90
30385;DHT22;17181;51.002;4.096;2024-03-02T22:07:03;12.30;99.90
30385;DHT22;17181;51.002;4.096;2024-03-02T22:09:29;12.20;99.90
30385;DHT22;17181;51.002;4.096;2024-03-02T22:11:55;12.20;99.90
30385;DHT22;17181;51.002;4.096;2024-03-02T22:14:21;12.10;99.90
30385;DHT22;17181;51.002;4.096;2024-03-02T22:16:46;12.10;99.90
30385;DHT22;17181;51.002;4.096;2024-03-02T22:19:12;12.10;99.90
30385;DHT22;17181;51.002;4.096;2024-03-02T22:21:38;12.10;99.90
30385;DHT22;17181;51.002;4.096;2024-03-02T22:24:04;12.00;99.90
30385;DHT22;17181;51.002;4.096;2024-03-02T22:26:30;12.00;99.90
30385;DHT22;17181;51.002;4.096;2024-03-02T22:28:56;12.00;99.90
30385;DHT22;17181;51.002;4.096;2024-03-02T22:31:21;12.00;99.90
30385;DHT22;17181;51.002;4.096;2024-03-02T22:33:47;12.00;99.90
30385;DHT22;17181;51.002;4.096;2024-03-02T22:36:13;11.90;99.90
30385;DHT22;17181;51.002;4.096;2024-03-02T22:38:39;11.90;99.90
30385;DHT22;17181;51.002;4.096;2024-03-02T22:41:05;11.80;99.90
30385;DHT22;17181;51.002;4.096;2024-03-02T22:43:30;11.70;99.90
30385;DHT22;17181;51.002;4.096;2024-03-02T22:45:56;11.60;99.90
30385;DHT22;17181;51.002;4.096;2024-03-02T22:48:22;11.50;99.90
30385;DHT22;17181;51.002;4.096;2024-03-02T22:50:48;11.40;99.90
30385;DHT22;17181;51.002;4.096;2024-03-02T22:53:14;11.30;99.90
30385;DHT22;17181;51.002;4.096;2024-03-02T22:55:40;11.20;99.90
30385;DHT22;17181;51.002;4.096;2024-03-02T22:58:06;11.10;99.90
30385;DHT22;17181;51.002;4.096;2024-03-02T23:00:31;11.10;99.90
30385;DHT22;17181;51.002;4.096;2024-03-02T23:03:01;11.00;99.90
30385;DHT22;17181;51.002;4.096;2024-03-02T23:05:28;11.00;99.90
30385;DHT22;17181;51.002;4.096;2024-03-02T23:07:55;10.90;99.90
30385;DHT22;17181;51.002;4.096;2024-03-02T23:10:22;10.90;99.90
30385;DHT22;17181;51.002;4.096;2024-03-02T23:12:48;10.80;99.90
30385;DHT22;17181;51.002;4.096;2024-03-02T23:15:14;10.70;99.90
30385;DHT22;17181;51.002;4.096;2024-03-02T23:17:39;10.50;99.90
30385;DHT22;17181;51.002;4.096;2024-03-02T23:20:06;10.30;99.90
30385;DHT22;17181;51.002;4.096;2024-03-02T23:22:33;10.10;99.90
30385;DHT22;17181;51.002;4.096;2024-03-02T23:24:59;10.00;99.90
30385;DHT22;17181;51.002;4.096;2024-03-02T23:27:25;9.90;99.90
30385;DHT22;17181;51.002;4.096;2024-03-02T23:29:51;9.90;99.90
30385;DHT22;17181;51.002;4.096;2024-03-02T23:32:17;9.90;99.90
30385;DHT22;17181;51.002;4.096;2024-03-02T23:34:42;9.80;99.90
30385;DHT22;17181;51.002;4.096;2024-03-02T23:37:08;9.80;99.90
30385;DHT22;17181;51.002;4.096;2024-03-02T23:39:35;9.70;99.90
30385;DHT22;17181;51.002;4.096;2024-03-02T23:42:20;9.70;99.90
30385;DHT22;17181;51.002;4.096;2024-03-02T23:44:46;9.70;99.90
30385;DHT22;17181;51.002;4.096;2024-03-02T23:47:12;9.70;99.90
30385;DHT22;17181;51.002;4.096;2024-03-02T23:49:38;9.70;99.90
30385;DHT22;17181;51.002;4.096;2024-03-02T23:52:04;9.70;99.90
30385;DHT22;17181;51.002;4.096;2024-03-02T23:54:30;9.70;99.90
30385;DHT22;17181;51.002;4.096;2024-03-02T23:56:56;9.70;99.90
30385;DHT22;17181;51.002;4.096;2024-03-02T23:59:22;9.70;99.90
